LZPPLZIB

Guest
Details From LZPP - PIESTANY
To LZIB - Bratislava/M.R. Stefanik
Flight Number -
Tags generated
Created
Modified
Stats Distance 37 nm / 68 km
Max Altitude 900 ft / 274 m
Waypoints 3
Social Downloads 5
Likes 0
Share VATSIM

Download

Looking for another format? Having issues loading an existing format? Contact us
Advertisement - Login to hide

Notes

Basic altitude profile: - Ascent Rate: 2500ft/min - Ascent Speed: 250kts - Cruise Altitude: 10000ft - Cruise Speed: 420kts - Descent Rate: 1500ft/min - Descent Speed: 250kts Options: - Use NATs: yes - Use PACOTS: yes - Use low airways: yes - Use high airways: no

Route

LZPP OKR LZIB

ID Type Via Altitude Latitude Longitude Leg Dist Tot Dist Heading (true) Name
O LZPP APT - 0 ft / 0 m 48.62525˚ 17.82844˚ - 0 nm - PIESTANY
OKR NDB - 900 ft / 274 m 48.22387˚ 17.29032˚ 32 nm 32 nm 222° / 221° STEFANIK NORTH NDB
O LZIB APT - 0 ft / 0 m 48.16831˚ 17.21560˚ 4 nm 36 nm 222° / 222° Bratislava/M.R. Stefanik

Altitude Profile

Advertisement - Login to hide

LZPP

Details ICAO LZPP (PZY)
Name PIESTANY
Region Slovakia
Timezone Europe/Bratislava (UTC+1.0)
Stats Elevation 545 ft / 166 m (AMSL)
Location 48.625246° 17.828443°
Runways 1
Magnetic Variation 4.585° E

METAR

LZPP 140800Z 12013KT 9999 -DZ SCT009 OVC017 02/01 Q1002

Decode

TAF

Not found

Departure Runways

ID Width Length Bearing (true) Bearing (mag) Surface Threshold Offset Overrun Length
01 98 ft / 30 m 6,560 ft / 1,999 m 13.71° 9.13° Asphalt 0 ft / 0 m 0 ft / 0 m
19 98 ft / 30 m 6,560 ft / 1,999 m 193.72° 189.14° Asphalt 0 ft / 0 m 0 ft / 0 m

LZIB

Details ICAO LZIB (BTS)
Name Bratislava/M.R. Stefanik
Region Slovakia
Timezone Europe/Bratislava (UTC+1.0)
Stats Elevation 436 ft / 133 m (AMSL)
Location 48.168314° 17.215597°
Runways 2
Magnetic Variation 4.404° E

METAR

LZIB 140800Z 07003KT 020V130 9999 FEW010 BKN063 03/01 Q1003 NOSIG

Decode

TAF

TAF AMD LZIB 140143Z 1401/1500 14010KT 9999 OVC012 TEMPO 1401/1405 15015G25KT BECMG 1403/1405 FEW010 OVC030 TEMPO 1405/1409 -RA BECMG 1412/1414 25011KT SCT033 BKN070 BECMG 1420/1422 14006KT SCT045

Decode

Destination Runways

ID Width Length Bearing (true) Bearing (mag) Surface Threshold Offset Overrun Length
04 197 ft / 60 m 9,540 ft / 2,908 m 43.80° 39.40° Concrete 0 ft / 0 m 7 ft / 2 m
13 148 ft / 45 m 9,688 ft / 2,953 m 134.02° 129.62° Concrete 0 ft / 0 m 98 ft / 30 m
22 197 ft / 60 m 9,540 ft / 2,908 m 223.82° 219.42° Concrete 0 ft / 0 m 49 ft / 15 m
31 148 ft / 45 m 9,688 ft / 2,953 m 314.04° 309.64° Concrete 0 ft / 0 m 810 ft / 247 m

Approach Navaids

Runway Type Ident Frequency Range Bearing (true) Bearing (mag) Slope Elevation
22 Glidescope OKR 108.30 MHz 10 nm / 19 km 223.83° 219.42° 3.00° 436 ft / 133 m (AMSL)
22 DME OKR 108.30 MHz 25 nm / 46 km - - - 436 ft / 133 m (AMSL)
31 Glidescope OB 110.70 MHz 10 nm / 19 km 313.99° 309.58° 3.00° 433 ft / 132 m (AMSL)
31 DME OB 110.70 MHz 25 nm / 46 km - - - 433 ft / 132 m (AMSL)

Popular Alternatives